Weather observations for the past three days for
Bastrop, Morehouse Memorial Airport
Metric (Imperial)
Date Time (cdt) Wind (kph) Vis. (km) Weather Sky Cond. Temperature (ºC) Relative Humidity Wind Chill (°C) Heat Index (°C) Pressure Precipitation (cm)
Air Dwpt 6 hour altimeter (cm) sea level (mb) 1 hr 3 hr 6 hr
Max. Min.
07 15:50 N 6 0.00 Fair CLR 22.7 9.8 44% 76.2 0.0
07 15:30 NW 7 0.00 Fair CLR 22.9 9.4 42% 76.23 0.0
07 15:10 NW 7 0.00 Fair CLR 22.6 9.3 43% 76.23 0.0
07 14:50 N 7 0.00 Fair CLR 22.2 9.7 45% 76.23 0.0
07 14:30 N 9 0.00 Fair CLR 22.1 10.1 47% 76.23 0.0
07 14:10 N 6 0.00 Fair CLR 21.9 10 47% 76.25 0.0
07 13:50 NE 9 0.00 Fair CLR 22 9.8 46% 76.28 0.0
07 13:30 NE 7 0.00 Fair CLR 21.9 9.8 46% 76.3 0.0
07 13:10 N 9 0.00 Fair CLR 21.3 9.1 46% 76.3 0.0
07 12:50 E 6 0.00 Fair CLR 21 9.5 21 11.6 48% 76.33 0.0
07 12:30 NE 7 0.00 Fair CLR 20.4 8.7 47% 76.33 0.0
07 12:10 NE 6 0.00 Fair CLR 20.5 9.4 49% 76.35 0.0
07 11:50 N 9 0.00 Fair CLR 19.8 9.2 51% 76.35 0.0
07 11:30 N 9 0.00 Fair CLR 19.5 9.2 52% 76.38 0.0
07 11:10 NE 9 0.00 Fair CLR 19.2 9.6 54% 76.38 0.0
07 10:50 N 7 0.00 Fair CLR 18.4 9.6 57% 76.38 0.0
07 10:30 N 11 0.00 Fair CLR 17.9 9.3 57% 76.38 0.0
07 10:10 NE 15 0.00 Fair CLR 17.2 9.1 59% 76.35 0.0
07 09:50 NE 6 0.00 Fair CLR 16.9 10.2 65% 76.35 0.0
07 09:30 N 6 0.00 Fair CLR 16.5 10.9 70% 76.35 0.0
07 09:10 N 6 0.00 Fair CLR 15.5 10.6 73% 76.38 0.0
07 08:30 N 7 0.00 Fair CLR 14 10.6 80% 76.35 0.0
07 08:10 Calm 0.00 Partly Cloudy SCT009 13.2 10.5 84% 76.35 0.0
07 07:50 N 9 0.00 NULL NULL 12.5 10.5 88% 76.35 0.0
07 07:30 N 6 0.00 NULL NULL 11.6 10.4 92% 76.33 0.0
07 07:10 N 6 0.00 NULL NULL 11.6 10.6 94% 76.28 0.0
07 06:50 N 6 0.00 Mostly Cloudy BKN006 11.5 10.7 12.3 11.5 95% 76.28 0.0
07 06:30 Calm 0.00 NULL NULL 11.5 10.5 94% 76.25 0.0
07 06:10 Calm 0.00 NULL NULL 11.5 10.5 94% 76.23 0.0
07 05:50 Calm 0.00 NULL NULL 11.6 10.5 93% 76.2 0.0
07 05:30 Calm 0.00 NULL NULL 11.7 10.6 93% 76.2 0.0
07 05:10 Calm 0.00 NULL NULL 11.6 10.6 94% 76.17 0.0
07 04:50 Calm 0.00 Overcast BKN009 OVC030 11.6 10.5 93% 76.15 0.0
07 04:30 N 6 0.00 Overcast OVC009 11.7 10.5 92% 76.2 0.0
07 04:10 NW 6 0.00 Overcast OVC009 11.8 10.5 92% 76.2 0.0
07 03:50 Calm 0.00 Overcast OVC009 11.8 10.5 92% 76.15 0.0
07 03:30 Calm 0.00 Overcast OVC011 11.9 10.5 91% 76.2 0.0
07 03:10 N 6 0.00 Overcast OVC011 11.8 10.5 92% 76.2 0.0
07 02:50 Calm 0.00 Overcast OVC011 12 10.5 91% 76.2 0.0
07 02:30 N 6 0.00 Overcast OVC009 12 10.7 92% 76.2 0.0
07 02:10 N 6 0.00 Overcast OVC009 12.1 11 93% 76.17 0.0
07 01:50 Calm 0.00 Overcast OVC009 12.2 11 92% 76.2 0.0
07 01:30 Calm 0.00 Overcast OVC011 12.3 11 92% 76.2 0.0
07 01:10 N 7 0.00 Overcast OVC011 12.3 11 92% 76.15 0.0
07 00:50 N 7 0.00 Overcast OVC011 12.3 11.1 14.1 12.3 92% 76.2 0.0
07 00:30 NW 6 0.00 Overcast BKN011 BKN027 OVC034 12.4 11.2 92% 76.17 0.0
07 00:10 Calm 0.00 Overcast BKN008 BKN025 OVC033 12.5 11.3 92% 76.12 0.0
06 23:30 Calm 0.00 Overcast OVC008 12.5 11.3 92% 76.15 0.0
06 23:10 Calm 0.00 Overcast OVC008 12.5 11.5 94% 76.15 0.0
06 22:50 N 6 0.00 Overcast OVC010 12.5 11.5 94% 76.12 0.0
06 22:30 Calm 0.00 Overcast OVC010 12.6 11.7 94% 76.12 0.0
06 22:10 N 6 0.00 Overcast OVC010 12.7 12 96% 76.12 0.0
06 21:50 Calm 0.00 Overcast OVC010 13 12.2 95% 76.12 0.0
06 21:30 Calm 0.00 Overcast OVC010 13 12.2 95% 76.1 0.0
06 21:10 Calm 0.00 Overcast OVC012 13 12.2 95% 76.07 0.0
06 20:50 Calm 0.00 Overcast OVC012 13 12.1 94% 76.07 0.0
06 20:30 N 6 0.00 Overcast OVC012 13 12.2 95% 76.02 0.0
06 20:10 Calm 0.00 NULL NULL 13 12.3 96% 76 0.0
06 19:50 Calm 0.00 Overcast BKN007 OVC011 13.1 12.4 96% 75.95 0.0
06 19:30 Calm 0.00 Overcast BKN008 OVC012 13.2 12.3 94% 75.97 0.0
06 19:10 Calm 0.00 Overcast BKN010 BKN013 OVC020 13.5 12 91% 75.97 0.0
06 18:30 NE 7 0.00 NULL NULL 14.5 12 85% 75.95 0.0
06 18:10 Calm 0.00 Overcast SCT010 OVC017 14.5 11.8 84% 75.95 0.0
06 17:50 N 6 0.00 Overcast OVC010 14.5 11.8 84% 75.95 0.0
06 17:10 N 7 0.00 Overcast OVC010 15 12.1 83% 75.95 0.0
06 16:50 N 6 0.00 Overcast OVC010 15.3 12.3 82% 75.95 0.0
06 16:30 N 9 0.00 Overcast OVC010 15.8 12.5 81% 75.97 0.0
06 16:10 Calm 0.00 Overcast OVC010 16.1 12.7 80% 75.95 0.0
06 15:50 N 9 0.00 Overcast OVC010 16.3 12.8 80% 75.95 0.0
06 15:30 N 13 0.00 Overcast OVC010 16.9 13.1 78% 75.92 0.0
06 15:10 N 7 0.00 Overcast OVC010 17 13.5 80% 75.92 0.0
06 14:50 N 6 0.00 Overcast OVC008 17.3 13.7 80% 75.92 0.0
06 14:30 N 11 0.00 Overcast OVC008 16.8 13.4 81% 75.97 0.0
06 14:10 N 6 0.00 Overcast OVC008 16.8 13.6 82% 76 0.0
06 13:50 N 9 0.00 Overcast OVC008 16.8 13.5 81% 76.02 0.0
06 13:30 N 7 0.00 Overcast OVC008 17.1 13.9 82% 76 0.0
06 13:10 N 7 0.00 Overcast OVC008 16.5 13.7 84% 76.05 0.0
06 12:50 N 7 0.00 Overcast OVC008 17.1 14.1 27 16.8 83% 76.05 0.0
06 12:30 Calm 0.00 Overcast BKN008 BKN017 OVC024 17.3 13.9 81% 76.02 0.0
06 12:10 N 6 0.00 Overcast SCT010 BKN017 OVC024 17.7 14.5 82% 76.02 0.0
06 11:50 N 15 0.00 Overcast OVC019 19.6 15.5 77% 76.02 0.0
06 11:30 SW 15 G 26 0.00 Overcast OVC019 26 21.1 74% 27 75.95 0.0
06 11:10 S 15 0.00 Overcast BKN019 OVC024 26.8 21.2 71% 29 75.92 0.0
06 10:50 S 15 0.00 Overcast BKN019 OVC023 26.5 21.5 74% 28 75.92 0.0
06 10:30 SW 13 0.00 Overcast BKN017 OVC022 25.8 21.2 76% 27 75.92 0.0
06 10:10 S 11 0.00 Overcast BKN015 BKN021 OVC075 26.1 21.3 75% 28 75.92 0.0
06 09:50 S 19 0.00 Overcast OVC015 26.3 21.4 75% 28 75.9 0.0
06 09:30 SW 11 0.00 Overcast OVC013 25 21.1 79% 26 75.9 0.0
06 09:10 S 13 0.00 Overcast BKN013 BKN018 OVC070 25.1 21.1 79% 26 75.9 0.0
06 08:50 S 7 0.00 Overcast BKN013 BKN019 OVC070 24.6 21.2 81% 25 75.87 0.0
06 08:30 S 9 0.00 Overcast SCT019 OVC070 23.9 21 84% 24 75.9 0.0
06 08:10 S 7 0.00 NULL NULL 23.3 20.8 86% 75.9 0.0
06 07:50 Calm 0.00 Overcast SCT022 SCT055 OVC070 23.2 20.7 86% 75.9 0.0
06 07:30 Calm 0.00 NULL NULL 23 20.6 86% 75.87 0.0
06 07:10 Calm 0.00 NULL NULL 23 20.5 86% 75.87 0.0
06 06:50 SW 6 0.00 NULL NULL 23 20.5 23.5 22.7 86% 75.84 0.0
06 06:30 SW 6 0.00 NULL NULL 22.9 20.5 86% 75.82 0.0
06 06:10 SW 9 0.00 Overcast OVC015 23 20.5 86% 75.79 0.0
06 05:50 Calm 0.00 Overcast OVC015 23 20.5 86% 75.79 0.0
06 05:30 S 9 0.00 Overcast OVC015 23 20.3 85% 75.77 0.0
06 05:10 SW 11 0.00 Overcast BKN017 OVC022 23 20.3 85% 75.74 0.0
06 04:50 S 11 0.00 NULL NULL 23 20.3 85% 75.74 0.0
06 04:30 SW 17 0.00 Overcast BKN014 OVC022 23 20.4 85% 75.72 0.0
06 04:10 S 15 0.00 NULL NULL 22.8 20.5 87% 75.67 0.0
06 03:50 S 11 0.00 NULL NULL 22.8 20.5 87% 75.62 0.0
06 03:30 S 11 0.00 NULL NULL 23 20.5 86% 75.64 0.0
06 03:10 S 15 0.00 NULL NULL 23 20.5 86% 75.67 0.0
06 02:50 S 15 0.00 Overcast BKN016 BKN021 OVC060 23.2 20.5 85% 75.72 0.0
06 02:30 S 11 0.00 Overcast OVC014 23.5 20.6 84% 75.74 0.0
06 02:10 SW 15 0.00 Overcast OVC016 23.4 20.6 84% 75.74 0.0
06 01:50 SW 15 0.00 Overcast OVC016 23.3 20.6 85% 75.72 0.0
06 01:30 S 7 0.00 Overcast OVC016 23.5 20.6 84% 75.72 0.0
06 01:10 S 11 0.00 Overcast OVC014 23.3 20.6 85% 75.74 0.0
06 00:50 S 9 0.00 Overcast OVC014 23.2 20.6 25 23.2 85% 75.74 0.0
06 00:30 S 11 0.00 Mostly Cloudy BKN014 BKN026 23.2 20.5 85% 75.72 0.0
06 00:10 S 13 0.00 Mostly Cloudy BKN016 BKN029 23.3 20.5 84% 75.69 0.0
05 23:50 S 7 0.00 Mostly Cloudy BKN016 BKN031 BKN048 23.2 20.5 85% 75.69 0.0
05 23:30 S 9 0.00 Mostly Cloudy SCT018 BKN022 BKN049 23.3 20.5 84% 75.69 0.0
05 23:10 S 11 0.00 Mostly Cloudy SCT024 BKN049 23.6 20.5 83% 75.72 0.0
05 22:50 S 13 0.00 Partly Cloudy SCT020 23.6 20.5 83% 75.74 0.0
05 22:30 S 11 0.00 Partly Cloudy SCT021 23.5 20.5 83% 75.72 0.0
05 22:10 S 9 0.00 Fair CLR 23.5 20.5 83% 75.69 0.0
05 21:50 S 9 0.00 Fair CLR 23.5 20.5 83% 75.67 0.0
05 21:30 S 7 0.00 Partly Cloudy SCT023 23.5 20.5 83% 75.67 0.0
05 21:10 S 9 0.00 Partly Cloudy SCT023 23.6 20.5 83% 75.64 0.0
05 20:50 S 6 0.00 Partly Cloudy SCT025 23.6 20.5 83% 75.62 0.0
05 20:30 S 7 0.00 Partly Cloudy SCT027 SCT049 23.7 20.5 82% 75.62 0.0
05 20:10 S 9 0.00 Mostly Cloudy SCT028 SCT035 BKN050 24 20.5 81% 24 75.62 0.0
05 19:50 S 7 0.00 Overcast BKN030 OVC035 24.3 20.4 79% 25 75.62 0.0
05 19:30 S 9 0.00 Overcast SCT023 BKN028 OVC037 24.7 20.4 77% 25 75.62 0.0
05 19:10 S 7 0.00 Overcast BKN025 BKN030 OVC040 24.8 20.3 76% 26 75.59 0.0
05 18:50 S 11 0.00 Overcast BKN025 BKN033 OVC050 25.1 20.5 25.7 22.6 76% 26 75.57 0.0
05 18:30 S 9 0.00 Overcast BKN025 OVC030 25.2 20.3 74% 26 75.59 0.0
05 18:10 S 9 0.00 Overcast BKN027 OVC033 25.1 20.1 74% 26 75.62 0.0
05 17:50 S 11 0.00 Overcast OVC025 25.2 20.1 73% 26 75.62 0.0
05 17:30 S 17 G 30 0.00 Overcast OVC027 25.5 20.1 72% 27 75.62 0.0
05 17:10 S 17 G 26 0.00 Overcast BKN025 OVC030 25.4 20 72% 26 75.62 0.0
05 16:50 S 11 0.00 Overcast BKN025 OVC031 25.4 19.8 71% 26 75.62 0.0
05 16:30 S 11 G 28 0.00 Overcast BKN025 OVC031 25.6 19.8 70% 27 75.62 0.0
05 16:10 S 7 0.00 Overcast BKN025 OVC029 25.4 19.9 72% 26 75.62 0.0
05 15:50 S 9 0.00 Overcast OVC023 25 19.7 73% 26 75.64 0.0
05 15:30 S 9 0.00 Overcast BKN025 OVC033 24.5 19.3 73% 25 75.67 0.0
05 15:10 S 13 0.00 Overcast SCT025 BKN032 OVC038 25.2 19.4 70% 26 75.69 0.0
05 14:50 S 6 0.00 Overcast SCT025 BKN030 OVC036 24.6 19.3 72% 25 75.72 0.0
05 14:30 S 11 0.00 Overcast OVC022 24.1 19.1 74% 25 75.72 0.0
05 14:10 S 11 0.00 Overcast OVC022 23 18.8 77% 75.74 0.0
05 13:50 S 7 0.00 Overcast OVC022 23 18.6 76% 75.72 0.0
05 13:30 S 15 0.00 Overcast SCT019 BKN027 OVC031 23 18.5 76% 75.72 0.0
05 13:10 S 15 0.00 Overcast OVC019 22.7 18.4 77% 75.74 0.0
05 12:50 S 13 G 31 0.00 Overcast OVC019 22.7 18.2 23 18.6 76% 75.74 0.0
05 12:30 S 7 0.00 Overcast OVC021 23 18.1 74% 75.74 0.0
05 12:10 S 11 0.00 Overcast BKN019 OVC025 22.6 17.8 74% 75.77 0.0
05 11:50 S 11 0.00 Overcast BKN022 OVC027 22.8 17.7 73% 75.77 0.0
05 11:30 S 15 0.00 Overcast OVC020 22.5 17.4 73% 75.79 0.0
05 11:10 S 15 0.00 Overcast BKN022 OVC032 22.4 17.1 72% 75.79 0.0
05 10:50 S 13 0.00 Overcast SCT019 BKN033 OVC042 21.2 16.6 75% 75.79 0.0
05 10:30 S 9 0.00 Overcast SCT026 BKN034 OVC042 21.1 16.3 74% 75.79 0.0
05 10:10 S 7 0.00 Overcast SCT026 OVC034 20.5 15.9 75% 75.79 0.0
05 09:50 S 11 0.00 Overcast BKN026 OVC034 20.3 15.6 75% 75.79 0.0
05 09:30 S 9 0.00 Overcast OVC026 19.9 15.2 74% 75.79 0.0
05 09:10 S 9 0.00 Overcast OVC028 19.5 15 75% 75.82 0.0
05 08:50 SE 7 0.00 Overcast OVC030 19.2 14.6 75% 75.82 0.0
05 08:30 S 13 0.00 NULL NULL 19 14.5 75% 75.79 0.0
05 08:10 SE 11 0.00 Overcast OVC035 19 14.5 75% 75.79 0.0
05 07:50 S 11 0.00 Overcast OVC037 18.9 14.2 74% 75.79 0.0
05 07:30 S 7 0.00 Overcast OVC037 18.7 14 74% 75.79 0.0
05 06:50 S 7 0.00 Overcast OVC035 18.6 13.6 18.8 17.2 73% 75.77 0.0
05 06:30 S 11 0.00 Overcast OVC031 18.5 13.5 73% 75.74 0.0
05 06:10 S 9 0.00 Overcast OVC033 18.2 13.2 73% 75.74 0.0
05 05:50 S 9 0.00 Overcast OVC033 18 13 73% 75.74 0.0
05 05:30 S 9 0.00 Mostly Cloudy BKN031 17.5 12.7 74% 75.74 0.0
05 05:10 S 7 0.00 Fair CLR 17.4 12.6 74% 75.74 0.0
05 04:50 S 9 0.00 Fair CLR 17.5 12.6 73% 75.77 0.0
05 04:30 S 7 0.00 Partly Cloudy SCT030 17.5 12.6 73% 75.77 0.0
05 04:10 S 7 0.00 Fair CLR 17.2 12.7 75% 75.79 0.0
05 03:50 S 6 0.00 Partly Cloudy SCT025 17.2 12.8 76% 75.79 0.0
05 03:30 S 6 0.00 Partly Cloudy SCT025 17.2 13 76% 75.79 0.0
05 03:10 Calm 0.00 Fair CLR 17.5 13 75% 75.82 0.0
05 02:50 S 7 0.00 Fair CLR 17.6 13 75% 75.82 0.0
05 02:30 Calm 0.00 Fair CLR 17.8 13 74% 75.82 0.0
05 02:10 S 7 0.00 Fair CLR 18 13 73% 75.82 0.0
05 01:50 S 7 0.00 Fair CLR 18.2 13 72% 75.87 0.0
05 01:30 S 6 0.00 Fair CLR 18.3 13 71% 75.87 0.0
05 01:10 Calm 0.00 Fair CLR 18.6 13 70% 75.87 0.0
05 00:50 S 7 0.00 Fair CLR 18.8 12.8 24.1 18.6 68% 75.87 0.0
05 00:30 S 7 0.00 Fair CLR 18.9 12.7 67% 75.9 0.0
05 00:10 S 6 0.00 Fair CLR 18.7 12.7 68% 75.87 0.0
04 23:50 Calm 0.00 Fair CLR 18.9 12.7 67% 75.9 0.0
04 23:30 Calm 0.00 Fair CLR 19 12.8 67% 75.9 0.0
04 23:10 Calm 0.00 Fair CLR 19.2 12.7 66% 75.87 0.0
04 22:50 Calm 0.00 Fair CLR 19.5 12.6 65% 75.87 0.0
04 22:30 Calm 0.00 Fair CLR 19.5 12.7 65% 75.87 0.0
04 22:10 S 6 0.00 Fair CLR 19.5 12.7 65% 75.87 0.0
04 21:50 Calm 0.00 Fair CLR 19.8 12.6 63% 75.87 0.0
04 21:30 SE 6 0.00 Fair CLR 20.4 12.5 61% 75.84 0.0
04 21:10 S 6 0.00 Fair CLR 20.6 12.5 60% 75.84 0.0
04 20:50 S 9 0.00 Fair CLR 20.9 12.5 59% 75.82 0.0
04 20:30 Calm 0.00 Fair CLR 20.8 12.5 59% 75.79 0.0
04 20:10 S 6 0.00 Fair CLR 21.5 12.5 57% 75.82 0.0
04 19:50 S 6 0.00 Fair CLR 21.7 12.3 55% 75.82 0.0
04 19:30 S 7 0.00 Fair CLR 22.5 12 52% 75.79 0.0
04 19:10 S 6 0.00 Fair CLR 23.3 11.5 48% 75.82 0.0
04 18:50 S 7 0.00 Fair CLR 24.5 10.6 26.3 24.5 42% 26 75.82 0.0
04 18:30 S 7 0.00 Fair CLR 24.6 9.9 40% 26 75.84 0.0
04 18:10 S 7 0.00 Fair CLR 25.2 9.9 38% 26 75.87 0.0
04 17:50 S 9 0.00 Fair CLR 25.5 9.7 37% 26 75.87 0.0
04 17:30 S 11 0.00 Fair CLR 25.7 9.4 36% 26 75.9 0.0
04 17:10 Calm 0.00 Fair CLR 25.6 9.8 37% 26 75.9 0.0
04 16:50 S 13 0.00 Fair CLR 26 10.1 37% 26 75.92 0.0
04 16:30 S 15 G 30 0.00 Fair CLR 26.1 9.7 36% 26 75.95 0.0
Date Time (cdt) Wind (kph) Vis. (km) Weather Sky Cond. Air Dwpt Max. Min. Relative Humidity Wind Chill (°C) Heat Index (°C) altimeter (cm) sea level (mb) 1 hr 3 hr 6 hr
6 hour
Temperature (ºC) Pressure Precipitation (cm)